Time;durP1;ratioP1;P1;durP2;ratioP2;P2;SDS_P1;SDS_P2;PMS_P1;PMS_P2;Temp;Humidity;BMP_temperature;BMP_pressure;BME280_temperature;BME280_humidity;BME280_pressure;Samples;Min_cycle;Max_cycle;Signal;HPM_P1;HPM_P2
2020/12/31 00:01:37;;;;;;;81.80;56.33;;;8.00;98.70;;;;;;5111427;28;20192;-80
2020/12/31 00:04:08;;;;;;;72.88;50.78;;;8.00;98.70;;;;;;5111572;28;20196;-81
2020/12/31 00:06:33;;;;;;;55.60;40.50;;;8.00;98.50;;;;;;5109322;28;20194;-81
2020/12/31 00:08:59;;;;;;;53.00;37.90;;;8.00;98.30;;;;;;5111355;28;20180;-81
2020/12/31 00:11:27;;;;;;;50.57;39.17;;;8.00;98.20;;;;;;5110289;28;20545;-81
2020/12/31 00:13:53;;;;;;;47.33;35.55;;;8.00;98.50;;;;;;5111580;27;20699;-81
2020/12/31 00:16:36;;;;;;;49.20;37.50;;;8.00;98.10;;;;;;5111283;28;20283;-80
2020/12/31 00:19:03;;;;;;;49.53;36.17;;;7.80;98.60;;;;;;5110133;28;20724;-81
2020/12/31 00:21:47;;;;;;;57.67;41.22;;;7.90;98.50;;;;;;5110027;28;20188;-81
2020/12/31 00:24:15;;;;;;;48.80;36.10;;;7.90;98.80;;;;;;5110853;28;20207;-81
2020/12/31 00:26:47;;;;;;;45.08;34.42;;;7.90;98.50;;;;;;5109812;28;20635;-81
2020/12/31 00:29:15;;;;;;;55.13;38.45;;;8.00;98.60;;;;;;5110781;28;20689;-81
2020/12/31 00:31:53;;;;;;;54.63;40.25;;;8.00;98.70;;;;;;5110939;28;20726;-81
2020/12/31 00:34:22;;;;;;;52.55;37.60;;;8.00;98.70;;;;;;5110940;28;20183;-81
2020/12/31 00:36:47;;;;;;;45.33;34.80;;;8.00;98.60;;;;;;5110744;28;20215;-81
2020/12/31 00:39:16;;;;;;;48.77;37.63;;;8.00;98.50;;;;;;5109889;28;20207;-81
2020/12/31 00:41:42;;;;;;;42.03;33.75;;;8.00;98.50;;;;;;5110742;28;20428;-81
2020/12/31 00:44:11;;;;;;;54.53;41.07;;;7.90;98.40;;;;;;5109772;28;20210;-81
2020/12/31 00:46:49;;;;;;;68.25;47.95;;;7.90;98.50;;;;;;5110382;28;20188;-81
2020/12/31 00:49:17;;;;;;;54.78;42.38;;;7.90;98.70;;;;;;5109242;28;20530;-81
2020/12/31 00:51:43;;;;;;;54.92;40.75;;;8.00;98.80;;;;;;5110327;28;20180;-81
2020/12/31 00:54:11;;;;;;;54.13;41.30;;;7.90;98.90;;;;;;5109878;28;20706;-81
2020/12/31 00:56:40;;;;;;;57.22;43.05;;;8.00;98.70;;;;;;5109687;28;20194;-81
2020/12/31 00:59:21;;;;;;;57.50;43.80;;;7.90;98.70;;;;;;5110322;27;20639;-81
2020/12/31 01:01:52;;;;;;;57.35;43.30;;;8.00;98.60;;;;;;5110247;28;20168;-81
2020/12/31 01:04:20;;;;;;;53.97;41.88;;;8.00;98.90;;;;;;5108875;28;20203;-81
2020/12/31 01:06:46;;;;;;;52.17;40.20;;;7.90;98.70;;;;;;5110198;28;20636;-80
2020/12/31 01:09:15;;;;;;;59.53;40.63;;;7.80;99.20;;;;;;5110164;28;20184;-81
2020/12/31 01:11:43;;;;;;;59.13;40.80;;;7.80;99.10;;;;;;5110665;28;20176;-80
2020/12/31 01:14:15;;;;;;;79.95;51.83;;;7.80;99.30;;;;;;5110260;28;20180;-81
2020/12/31 01:16:47;;;;;;;75.88;53.03;;;7.80;99.20;;;;;;5108261;28;20195;-81
2020/12/31 01:19:15;;;;;;;58.47;42.92;;;7.80;99.30;;;;;;5109254;28;20176;-80
2020/12/31 01:21:47;;;;;;;56.35;39.95;;;7.80;99.10;;;;;;5110080;28;20203;-81
2020/12/31 01:24:15;;;;;;;58.67;40.53;;;7.70;99.20;;;;;;5110085;28;20208;-81
2020/12/31 01:26:44;;;;;;;64.18;44.38;;;7.70;99.30;;;;;;5109682;28;20232;-81
2020/12/31 01:29:18;;;;;;;54.08;40.45;;;7.70;99.50;;;;;;5109807;28;20180;-81
2020/12/31 01:31:53;;;;;;;62.72;44.15;;;7.70;99.40;;;;;;5107582;28;20175;-81
2020/12/31 01:34:22;;;;;;;64.22;46.38;;;7.80;99.30;;;;;;5109774;28;20187;-81
2020/12/31 01:36:52;;;;;;;68.03;45.83;;;7.80;99.30;;;;;;5108909;28;20994;-81
2020/12/31 01:39:24;;;;;;;65.95;46.40;;;7.90;99.50;;;;;;5109835;28;20172;-81
2020/12/31 01:42:02;;;;;;;62.83;46.28;;;7.90;99.30;;;;;;5110065;28;20199;-81
2020/12/31 01:44:34;;;;;;;60.28;44.67;;;7.90;99.30;;;;;;5109097;28;20188;-81
2020/12/31 01:47:03;;;;;;;62.10;45.80;;;8.00;99.00;;;;;;5109968;28;20180;-80
2020/12/31 01:49:39;;;;;;;73.40;51.50;;;8.00;99.40;;;;;;5108468;28;20175;-81
2020/12/31 01:52:10;;;;;;;65.95;46.20;;;7.90;99.40;;;;;;5108179;28;20175;-81
2020/12/31 01:54:39;;;;;;;69.93;48.65;;;7.90;99.40;;;;;;5107638;28;20231;-81
2020/12/31 01:57:08;;;;;;;68.10;46.83;;;7.90;99.30;;;;;;5109216;28;20700;-81
2020/12/31 01:59:39;;;;;;;63.00;47.05;;;7.90;99.30;;;;;;5108162;28;20729;-81
2020/12/31 02:02:11;;;;;;;64.68;48.28;;;7.90;99.30;;;;;;5108044;28;20748;-81
2020/12/31 02:04:41;;;;;;;65.25;46.50;;;7.90;99.50;;;;;;5106590;28;20219;-81
2020/12/31 02:07:12;;;;;;;65.60;46.83;;;7.90;99.40;;;;;;5107403;28;20171;-80
2020/12/31 02:09:41;;;;;;;63.60;45.38;;;7.90;99.20;;;;;;5109007;28;20501;-81
2020/12/31 02:12:09;;;;;;;67.53;46.97;;;7.90;99.20;;;;;;5109445;28;20176;-81
2020/12/31 02:14:46;;;;;;;63.17;47.45;;;7.90;99.40;;;;;;5109138;28;20194;-81
2020/12/31 02:17:18;;;;;;;68.90;49.13;;;7.90;99.90;;;;;;5108741;28;20682;-81
2020/12/31 02:19:44;;;;;;;65.97;46.92;;;8.00;99.10;;;;;;5109371;28;20620;-81
2020/12/31 02:22:14;;;;;;;61.67;46.15;;;7.90;99.40;;;;;;5107368;28;20183;-81
2020/12/31 02:24:43;;;;;;;60.35;44.50;;;7.90;99.30;;;;;;5108789;28;20691;-81
2020/12/31 02:27:09;;;;;;;66.28;45.83;;;8.00;99.20;;;;;;5107652;28;20539;-81
2020/12/31 02:29:40;;;;;;;63.97;45.00;;;8.10;99.00;;;;;;5108854;28;20176;-80
2020/12/31 02:32:12;;;;;;;55.97;42.85;;;8.10;98.90;;;;;;5107398;28;20983;-80
2020/12/31 02:34:40;;;;;;;57.75;43.55;;;8.00;99.20;;;;;;5108816;28;20172;-81
2020/12/31 02:37:08;;;;;;;65.47;46.53;;;8.00;99.10;;;;;;5106333;28;20176;-81
2020/12/31 02:39:37;;;;;;;65.60;46.90;;;8.00;99.00;;;;;;5107171;28;20207;-81
2020/12/31 02:42:02;;;;;;;64.05;46.95;;;7.90;99.10;;;;;;5108669;28;20271;-81
2020/12/31 02:44:31;;;;;;;58.57;44.60;;;7.90;99.20;;;;;;5108272;28;20298;-81
2020/12/31 02:47:02;;;;;;;70.03;48.20;;;7.90;99.10;;;;;;5108591;28;20255;-81
2020/12/31 02:49:31;;;;;;;62.28;47.13;;;7.90;99.20;;;;;;5107287;28;20192;-81
2020/12/31 02:51:59;;;;;;;65.70;48.28;;;7.90;99.10;;;;;;5108863;28;20172;-81
2020/12/31 02:54:31;;;;;;;66.30;47.55;;;7.90;99.10;;;;;;5105517;28;20349;-80
2020/12/31 02:56:56;;;;;;;77.07;50.63;;;7.90;99.50;;;;;;5106289;28;20230;-80
2020/12/31 02:59:25;;;;;;;66.77;48.10;;;7.80;99.50;;;;;;5107174;28;20674;-81
2020/12/31 03:01:59;;;;;;;63.67;48.03;;;7.90;99.10;;;;;;5108603;28;20184;-81
2020/12/31 03:04:24;;;;;;;69.45;47.35;;;7.80;99.30;;;;;;5108006;28;20215;-81
2020/12/31 03:06:55;;;;;;;63.17;43.87;;;7.80;99.20;;;;;;5107940;28;20555;-80
2020/12/31 03:09:30;;;;;;;78.90;48.72;;;7.80;99.00;;;;;;5106746;28;20600;-81
2020/12/31 03:12:07;;;;;;;104.43;48.47;;;7.70;99.20;;;;;;5108114;28;20168;-81
2020/12/31 03:14:41;;;;;;;143.10;53.22;;;7.60;99.20;;;;;;5107562;28;20192;-81
2020/12/31 03:17:06;;;;;;;100.65;51.80;;;7.40;99.50;;;;;;5108066;28;20680;-81
2020/12/31 03:19:40;;;;;;;136.70;54.80;;;7.50;99.60;;;;;;5108247;28;20718;-81
2020/12/31 03:22:12;;;;;;;112.50;53.75;;;7.50;99.90;;;;;;5108011;28;20580;-81
2020/12/31 03:24:49;;;;;;;125.93;54.25;;;7.50;99.90;;;;;;5107550;28;20195;-81
2020/12/31 03:27:14;;;;;;;149.98;55.60;;;7.60;99.90;;;;;;5107234;28;20637;-81
2020/12/31 03:29:43;;;;;;;133.83;54.63;;;7.60;99.90;;;;;;5107974;28;20183;-81
2020/12/31 03:32:18;;;;;;;129.45;53.72;;;7.60;99.80;;;;;;5106774;28;20256;-81
2020/12/31 03:34:47;;;;;;;117.15;51.05;;;7.60;99.70;;;;;;5107539;28;20697;-81
2020/12/31 03:37:18;;;;;;;125.78;51.75;;;7.60;99.60;;;;;;5108158;28;20184;-81
2020/12/31 03:39:50;;;;;;;116.97;52.63;;;7.50;99.80;;;;;;5107641;28;20640;-81
2020/12/31 03:42:34;;;;;;;126.72;54.97;;;7.50;99.80;;;;;;5106931;28;20171;-81
2020/12/31 03:44:59;;;;;;;115.15;53.80;;;7.50;99.90;;;;;;5107903;28;20266;-81
2020/12/31 03:47:31;;;;;;;106.47;53.80;;;7.60;99.80;;;;;;5107647;28;20259;-81
2020/12/31 03:50:02;;;;;;;196.18;59.88;;;7.50;99.70;;;;;;5107875;28;20180;-81
2020/12/31 03:52:31;;;;;;;154.43;57.20;;;7.40;99.80;;;;;;5108015;28;20180;-81
2020/12/31 03:55:02;;;;;;;153.60;59.20;;;7.40;99.90;;;;;;5107194;28;20258;-81
2020/12/31 03:57:31;;;;;;;176.75;62.30;;;7.30;99.90;;;;;;5107750;28;20183;-80
2020/12/31 04:00:06;;;;;;;185.23;59.53;;;7.40;99.90;;;;;;5106501;28;20191;-81
2020/12/31 04:02:31;;;;;;;139.57;59.20;;;7.40;99.90;;;;;;5107325;28;20175;-81
2020/12/31 04:05:04;;;;;;;161.40;55.87;;;7.40;99.90;;;;;;5107363;28;20672;-81
2020/12/31 04:07:30;;;;;;;115.55;53.13;;;7.40;99.90;;;;;;5107618;28;20253;-81
2020/12/31 04:10:11;;;;;;;119.13;52.60;;;7.40;99.90;;;;;;5107081;28;20268;-81
2020/12/31 04:12:40;;;;;;;86.75;49.92;;;7.50;99.90;;;;;;5105749;28;20416;-81
2020/12/31 04:15:05;;;;;;;116.28;54.13;;;7.50;99.90;;;;;;5106996;28;20175;-81
2020/12/31 04:17:34;;;;;;;104.03;51.50;;;7.50;99.90;;;;;;5107031;28;20654;-81
2020/12/31 04:20:08;;;;;;;97.35;49.90;;;7.50;99.90;;;;;;5107610;28;20190;-81
2020/12/31 04:22:55;;;;;;;97.68;51.67;;;7.50;99.90;;;;;;5106733;28;20249;-81
2020/12/31 04:25:20;;;;;;;99.90;50.60;;;7.50;99.90;;;;;;5107144;28;20194;-81
2020/12/31 04:27:49;;;;;;;101.37;53.00;;;7.50;99.90;;;;;;5106303;28;20179;-81
2020/12/31 04:30:20;;;;;;;117.82;53.72;;;7.50;99.90;;;;;;5108669;28;20172;-81
2020/12/31 04:32:55;;;;;;;119.05;54.17;;;7.60;99.90;;;;;;5108282;28;20184;-81
2020/12/31 04:35:20;;;;;;;112.70;52.20;;;7.60;99.90;;;;;;5110831;28;20268;-81
2020/12/31 04:37:52;;;;;;;100.83;51.77;;;7.60;99.90;;;;;;5111414;28;20648;-81
2020/12/31 04:40:21;;;;;;;101.18;49.85;;;7.60;99.90;;;;;;5111480;28;20176;-81
2020/12/31 04:43:02;;;;;;;80.15;46.90;;;7.50;99.90;;;;;;5110884;28;20738;-81
2020/12/31 04:45:34;;;;;;;101.93;47.38;;;7.60;99.90;;;;;;5110802;28;20263;-81
2020/12/31 04:48:03;;;;;;;88.18;46.42;;;7.60;99.90;;;;;;5108595;28;20183;-81
2020/12/31 04:50:39;;;;;;;101.25;48.03;;;7.60;99.60;;;;;;5108886;28;20183;-81
2020/12/31 04:53:06;;;;;;;84.72;50.97;;;7.60;99.90;;;;;;5110631;28;20231;-81
2020/12/31 04:55:41;;;;;;;102.05;48.13;;;7.70;99.80;;;;;;5110722;28;20168;-81
2020/12/31 04:58:12;;;;;;;91.32;48.30;;;7.60;99.90;;;;;;5111208;28;20571;-81
2020/12/31 05:00:40;;;;;;;77.45;43.70;;;7.50;99.40;;;;;;5108523;28;20180;-81
2020/12/31 05:03:06;;;;;;;105.65;46.35;;;7.60;99.80;;;;;;5110085;28;20235;-81
2020/12/31 05:05:39;;;;;;;92.68;44.65;;;7.60;99.80;;;;;;5109358;28;20179;-81
2020/12/31 05:08:11;;;;;;;68.85;45.00;;;7.50;99.70;;;;;;5110850;28;20174;-81
2020/12/31 05:10:40;;;;;;;66.22;43.33;;;7.50;99.70;;;;;;5110294;28;20599;-80
2020/12/31 05:13:19;;;;;;;81.03;48.35;;;7.50;99.70;;;;;;5108726;28;20187;-81
2020/12/31 05:15:45;;;;;;;113.85;60.45;;;7.60;99.50;;;;;;5109627;28;20179;-81
2020/12/31 05:18:32;;;;;;;213.93;92.23;;;7.50;99.70;;;;;;5107805;28;20191;-81
2020/12/31 05:21:17;;;;;;;147.00;71.47;;;7.50;99.80;;;;;;5108319;28;20180;-81
2020/12/31 05:23:54;;;;;;;115.30;51.75;;;7.60;99.40;;;;;;5110344;28;20203;-81
2020/12/31 05:26:29;;;;;;;87.68;47.63;;;7.50;99.80;;;;;;5110923;28;20528;-81
2020/12/31 05:28:56;;;;;;;82.07;46.10;;;7.50;99.80;;;;;;5110487;28;20163;-81
2020/12/31 05:31:33;;;;;;;101.57;53.20;;;7.50;99.80;;;;;;5110673;28;20566;-81
2020/12/31 05:34:02;;;;;;;100.63;58.03;;;7.50;99.80;;;;;;5111164;28;20164;-80
2020/12/31 05:36:40;;;;;;;102.00;52.13;;;7.50;99.40;;;;;;5110719;28;20237;-81
2020/12/31 05:39:12;;;;;;;114.93;56.28;;;7.50;99.60;;;;;;5108473;28;20183;-81
2020/12/31 05:41:52;;;;;;;157.43;67.95;;;7.50;99.70;;;;;;5110884;28;20699;-81
2020/12/31 05:44:18;;;;;;;145.73;71.32;;;7.50;99.70;;;;;;5109396;28;20203;-81
2020/12/31 05:46:58;;;;;;;110.63;60.90;;;7.50;99.80;;;;;;5111455;28;20187;-81
2020/12/31 05:49:30;;;;;;;101.35;56.53;;;7.40;99.80;;;;;;5109595;28;20229;-81
2020/12/31 05:51:56;;;;;;;98.80;55.70;;;7.50;99.60;;;;;;5110449;28;20687;-81
2020/12/31 05:54:33;;;;;;;73.57;50.33;;;7.50;99.70;;;;;;5108700;28;20284;-81
2020/12/31 05:57:13;;;;;;;77.20;53.22;;;7.50;99.70;;;;;;5109806;28;20651;-81
2020/12/31 05:59:46;;;;;;;65.68;48.35;;;7.50;99.60;;;;;;5108834;28;20168;-81
2020/12/31 06:02:23;;;;;;;69.57;49.10;;;7.50;99.60;;;;;;5109633;28;20214;-81
2020/12/31 06:05:01;;;;;;;67.80;47.85;;;7.50;99.60;;;;;;5109133;27;20187;-81
2020/12/31 06:07:33;;;;;;;69.80;48.40;;;7.50;99.60;;;;;;5109247;27;20568;-81
2020/12/31 06:10:07;;;;;;;64.68;46.72;;;7.60;99.50;;;;;;5108537;28;20183;-81
2020/12/31 06:12:57;;;;;;;62.08;47.13;;;7.50;99.30;;;;;;5108441;28;20183;-81
2020/12/31 06:15:48;;;;;;;58.80;45.17;;;7.50;99.50;;;;;;5107979;28;20180;-81
2020/12/31 06:18:19;;;;;;;60.35;44.92;;;7.60;99.50;;;;;;5107988;28;20168;-80
2020/12/31 06:20:59;;;;;;;59.45;44.65;;;7.60;99.60;;;;;;5108912;28;20164;-81
2020/12/31 06:23:35;;;;;;;58.92;43.92;;;7.60;99.50;;;;;;5109307;28;20198;-81
2020/12/31 06:26:11;;;;;;;55.78;43.17;;;7.60;99.50;;;;;;5108855;28;20225;-80
2020/12/31 06:28:45;;;;;;;59.58;45.80;;;7.60;99.50;;;;;;5107429;28;20167;-80
2020/12/31 06:31:11;;;;;;;57.53;45.05;;;7.50;99.50;;;;;;5109043;28;20176;-80
2020/12/31 06:33:52;;;;;;;62.88;46.03;;;7.50;99.50;;;;;;5108654;28;20180;-81
2020/12/31 06:36:18;;;;;;;60.83;45.20;;;7.60;99.70;;;;;;5108556;28;20302;-81
2020/12/31 06:38:50;;;;;;;61.95;45.80;;;7.60;99.40;;;;;;5108615;28;20187;-81
2020/12/31 06:41:30;;;;;;;66.07;49.45;;;7.60;99.40;;;;;;5108955;28;20176;-81
2020/12/31 06:44:27;;;;;;;62.55;47.35;;;7.60;99.30;;;;;;5106953;28;20192;-81
2020/12/31 06:46:56;;;;;;;55.95;44.67;;;7.60;99.20;;;;;;5108487;28;20298;-80
2020/12/31 06:49:28;;;;;;;57.17;43.20;;;7.60;99.30;;;;;;5107933;28;20176;-80
2020/12/31 06:52:19;;;;;;;53.25;42.10;;;7.60;99.50;;;;;;5106525;28;20184;-81
2020/12/31 06:54:57;;;;;;;55.90;42.20;;;7.60;99.40;;;;;;5106293;28;20638;-80
2020/12/31 06:57:41;;;;;;;60.28;42.75;;;7.60;99.40;;;;;;5109149;28;20183;-80
2020/12/31 07:00:31;;;;;;;54.05;42.58;;;7.60;99.50;;;;;;5107509;28;20188;-81
2020/12/31 07:02:59;;;;;;;53.78;42.72;;;7.50;99.70;;;;;;5108025;28;20204;-81
2020/12/31 07:05:24;;;;;;;54.83;43.78;;;7.60;99.60;;;;;;5107967;28;20168;-81
2020/12/31 07:07:50;;;;;;;59.13;43.23;;;7.60;99.70;;;;;;5108352;28;20522;-81
2020/12/31 07:10:19;;;;;;;57.40;44.43;;;7.60;99.70;;;;;;5107858;28;20190;-81
2020/12/31 07:12:45;;;;;;;56.85;42.05;;;7.70;99.60;;;;;;5106407;28;20180;-81
2020/12/31 07:15:19;;;;;;;60.17;44.30;;;7.70;99.60;;;;;;5107588;28;20183;-81
2020/12/31 07:17:46;;;;;;;56.33;41.10;;;7.60;99.90;;;;;;5106966;28;20194;-81
2020/12/31 07:20:17;;;;;;;53.80;41.65;;;7.70;99.70;;;;;;5108506;28;20172;-81
2020/12/31 07:23:02;;;;;;;57.53;43.00;;;7.70;99.80;;;;;;5108049;28;20222;-81
2020/12/31 07:25:43;;;;;;;61.05;43.88;;;7.70;99.70;;;;;;5106608;28;20191;-81
2020/12/31 07:28:17;;;;;;;59.22;43.42;;;7.70;99.70;;;;;;5108104;28;20171;-81
2020/12/31 07:30:52;;;;;;;57.92;41.28;;;7.70;99.70;;;;;;5107612;28;20263;-81
2020/12/31 07:33:49;;;;;;;54.85;40.65;;;7.70;99.80;;;;;;5107813;28;20535;-81
2020/12/31 07:36:15;;;;;;;53.97;41.00;;;7.80;99.80;;;;;;5108349;28;20175;-81
2020/12/31 07:38:46;;;;;;;52.70;40.60;;;7.80;99.80;;;;;;5108464;28;20635;-81
2020/12/31 07:41:26;;;;;;;54.42;41.88;;;7.80;99.80;;;;;;5108077;28;20176;-81
2020/12/31 07:43:52;;;;;;;52.33;40.28;;;7.80;99.80;;;;;;5107593;28;20203;-81
2020/12/31 07:46:21;;;;;;;51.80;40.13;;;7.90;99.70;;;;;;5108150;28;20692;-81
2020/12/31 07:48:49;;;;;;;52.35;39.72;;;7.90;99.70;;;;;;5107174;28;20190;-81
2020/12/31 07:51:19;;;;;;;48.55;39.25;;;7.90;99.90;;;;;;5107348;28;20204;-81
2020/12/31 07:53:45;;;;;;;53.90;38.33;;;7.90;99.80;;;;;;5107414;28;20234;-81
2020/12/31 07:56:12;;;;;;;48.43;37.93;;;8.00;99.60;;;;;;5108202;28;20632;-81
2020/12/31 07:58:45;;;;;;;45.33;36.85;;;8.00;99.70;;;;;;5107603;28;20226;-81
2020/12/31 08:01:13;;;;;;;48.20;39.38;;;8.00;99.90;;;;;;5105927;28;20179;-81
2020/12/31 08:03:45;;;;;;;48.92;38.80;;;8.00;99.80;;;;;;5107626;28;20195;-81
2020/12/31 08:06:11;;;;;;;49.65;38.60;;;8.00;99.90;;;;;;5111188;28;20172;-80
2020/12/31 08:08:43;;;;;;;50.72;38.97;;;8.00;99.80;;;;;;5110099;28;20267;-80
2020/12/31 08:11:15;;;;;;;47.75;38.10;;;8.10;99.80;;;;;;5112000;28;20176;-80
2020/12/31 08:13:41;;;;;;;47.45;37.03;;;8.10;99.80;;;;;;5110850;28;20298;-80
2020/12/31 08:16:15;;;;;;;45.10;36.70;;;8.20;99.80;;;;;;5110990;28;20656;-80
2020/12/31 08:18:44;;;;;;;47.22;38.00;;;8.20;99.80;;;;;;5110994;28;20171;-80
2020/12/31 08:21:10;;;;;;;46.00;37.70;;;8.10;99.90;;;;;;5111533;28;20186;-81
2020/12/31 08:23:44;;;;;;;46.38;38.15;;;8.20;99.90;;;;;;5110721;28;20203;-80
2020/12/31 08:26:21;;;;;;;47.10;37.55;;;8.20;99.80;;;;;;5111223;28;20167;-80
2020/12/31 08:28:50;;;;;;;43.83;34.10;;;8.30;99.70;;;;;;5110578;28;20156;-80
2020/12/31 08:31:26;;;;;;;44.05;34.70;;;8.20;99.90;;;;;;5110918;28;20182;-80
2020/12/31 08:33:59;;;;;;;46.33;34.65;;;8.30;99.90;;;;;;5109572;28;20237;-80
2020/12/31 08:36:26;;;;;;;42.15;34.45;;;8.30;99.80;;;;;;5089638;28;20548;-80
2020/12/31 08:39:05;;;;;;;41.78;32.63;;;8.30;99.90;;;;;;5103319;28;20183;-80
2020/12/31 08:41:33;;;;;;;48.78;35.65;;;8.30;99.70;;;;;;5110763;28;20567;-80
2020/12/31 08:44:04;;;;;;;44.38;35.45;;;8.30;99.90;;;;;;5109693;28;20602;-80
2020/12/31 08:46:29;;;;;;;42.17;33.10;;;8.30;99.80;;;;;;5111135;28;20512;-80
2020/12/31 08:48:58;;;;;;;38.70;30.77;;;8.40;99.80;;;;;;5110293;28;20635;-80
2020/12/31 08:51:33;;;;;;;38.72;31.70;;;8.40;99.60;;;;;;5110277;28;20612;-80
2020/12/31 08:54:02;;;;;;;39.17;30.33;;;8.40;99.60;;;;;;5110738;28;20311;-80
2020/12/31 08:56:33;;;;;;;39.45;30.65;;;8.40;99.60;;;;;;5109847;28;20176;-81
2020/12/31 08:59:10;;;;;;;39.65;31.02;;;8.40;99.60;;;;;;5110612;28;20179;-80
2020/12/31 09:01:43;;;;;;;40.13;31.42;;;8.40;99.70;;;;;;5110410;28;20584;-80
2020/12/31 09:04:27;;;;;;;46.58;31.70;;;8.50;99.80;;;;;;5110398;28;20187;-80
2020/12/31 09:06:58;;;;;;;44.72;31.17;;;8.40;99.90;;;;;;5110482;28;20568;-80
2020/12/31 09:09:33;;;;;;;39.88;31.08;;;8.50;99.90;;;;;;5110303;27;20176;-80
2020/12/31 09:12:08;;;;;;;52.70;35.85;;;8.40;99.90;;;;;;5109571;28;20240;-80
2020/12/31 09:14:57;;;;;;;53.55;35.78;;;8.50;99.90;;;;;;5110343;28;20664;-81
2020/12/31 09:17:43;;;;;;;53.00;36.47;;;8.60;99.90;;;;;;5110542;28;20187;-81
2020/12/31 09:20:17;;;;;;;51.33;37.75;;;8.50;99.90;;;;;;5110308;28;20239;-79
2020/12/31 09:22:42;;;;;;;59.53;43.08;;;8.60;99.90;;;;;;5109959;28;20176;-80
2020/12/31 09:25:15;;;;;;;49.47;37.30;;;8.60;99.80;;;;;;5110002;28;20182;-81
2020/12/31 09:27:47;;;;;;;51.13;37.10;;;8.70;99.90;;;;;;5108684;28;20255;-80
2020/12/31 09:30:17;;;;;;;51.72;36.53;;;8.70;99.90;;;;;;5109608;28;20156;-80
2020/12/31 09:32:46;;;;;;;48.85;35.92;;;8.70;99.90;;;;;;5109784;28;20234;-81
2020/12/31 09:35:12;;;;;;;42.78;32.42;;;8.70;99.90;;;;;;5109176;28;20180;-81
2020/12/31 09:37:59;;;;;;;40.30;32.00;;;8.80;99.90;;;;;;5110342;28;20168;-81
2020/12/31 09:40:26;;;;;;;40.55;31.10;;;8.70;99.90;;;;;;5108218;28;20873;-80
2020/12/31 09:42:59;;;;;;;41.03;30.75;;;8.80;99.90;;;;;;5108829;28;20516;-80
2020/12/31 09:45:25;;;;;;;38.83;29.83;;;8.80;99.90;;;;;;5109209;28;20160;-81
2020/12/31 09:48:03;;;;;;;37.40;29.67;;;8.90;99.90;;;;;;5110842;28;20221;-80
2020/12/31 09:50:29;;;;;;;35.28;28.15;;;8.90;99.90;;;;;;5110216;28;20176;-80
2020/12/31 09:53:04;;;;;;;33.47;25.92;;;8.90;99.80;;;;;;5109742;28;20258;-80
2020/12/31 09:55:30;;;;;;;36.25;27.08;;;8.90;99.90;;;;;;5109167;27;20238;-81
2020/12/31 09:58:02;;;;;;;38.07;28.17;;;8.90;99.70;;;;;;5109642;28;20271;-80
2020/12/31 10:00:33;;;;;;;40.80;28.83;;;8.90;99.90;;;;;;5106878;28;20255;-81
2020/12/31 10:02:59;;;;;;;35.35;27.50;;;8.90;99.70;;;;;;5109526;28;20595;-80
2020/12/31 10:05:25;;;;;;;43.13;32.97;;;9.00;99.60;;;;;;5108967;28;20183;-80
2020/12/31 10:07:59;;;;;;;50.10;35.90;;;8.90;99.70;;;;;;5108435;28;20623;-80
2020/12/31 10:10:25;;;;;;;42.13;31.25;;;9.00;99.80;;;;;;5109580;28;20615;-80
2020/12/31 10:12:53;;;;;;;38.53;30.13;;;8.90;99.60;;;;;;5108357;28;20190;-80
2020/12/31 10:15:19;;;;;;;34.10;30.10;;;8.90;99.60;;;;;;5105275;28;20176;-80
2020/12/31 10:17:45;;;;;;;37.00;28.20;;;8.80;99.80;;;;;;5108748;28;20195;-80
2020/12/31 10:20:10;;;;;;;31.43;25.00;;;8.90;99.80;;;;;;5108997;28;20271;-80
2020/12/31 10:22:36;;;;;;;35.93;26.40;;;8.90;99.80;;;;;;5108252;28;20635;-80
2020/12/31 10:25:03;;;;;;;31.30;26.07;;;8.90;99.90;;;;;;5109470;28;20190;-80
2020/12/31 10:27:31;;;;;;;33.58;26.13;;;8.90;99.90;;;;;;5108677;28;20196;-81
2020/12/31 10:29:57;;;;;;;34.13;24.73;;;8.90;99.90;;;;;;5110081;28;20580;-80
2020/12/31 10:32:22;;;;;;;35.83;28.50;;;9.00;99.90;;;;;;5109923;28;20270;-81
2020/12/31 10:34:48;;;;;;;37.93;29.10;;;8.90;99.90;;;;;;5109076;28;20650;-80
2020/12/31 10:37:35;;;;;;;33.60;26.70;;;8.90;99.90;;;;;;5107818;28;20187;-81
2020/12/31 10:40:04;;;;;;;40.28;28.55;;;9.00;99.90;;;;;;5108092;28;20186;-81
2020/12/31 10:42:35;;;;;;;42.08;32.05;;;8.90;99.90;;;;;;5107465;28;20274;-80
2020/12/31 10:45:06;;;;;;;37.90;30.10;;;9.00;99.90;;;;;;5108366;28;20204;-80
2020/12/31 10:47:44;;;;;;;46.50;32.47;;;8.90;99.90;;;;;;5107857;28;20229;-81
2020/12/31 10:50:16;;;;;;;37.33;27.90;;;8.90;99.90;;;;;;5105488;28;20203;-84
2020/12/31 10:52:50;;;;;;;36.35;26.23;;;8.90;99.90;;;;;;5107297;28;20733;-84
2020/12/31 10:55:19;;;;;;;35.78;25.92;;;8.90;99.90;;;;;;5108164;28;20171;-84
2020/12/31 10:57:47;;;;;;;32.28;24.13;;;8.90;99.90;;;;;;5108014;28;20176;-84
2020/12/31 11:00:16;;;;;;;34.30;27.00;;;8.90;99.80;;;;;;5097138;28;20209;-83
2020/12/31 11:02:41;;;;;;;30.75;24.52;;;8.90;99.90;;;;;;5100499;28;20194;-83
2020/12/31 11:05:10;;;;;;;30.00;23.03;;;8.90;99.70;;;;;;5104894;28;20171;-83
2020/12/31 11:07:48;;;;;;;26.80;22.92;;;8.90;99.90;;;;;;5104326;28;20620;-83
2020/12/31 11:10:16;;;;;;;30.92;23.17;;;8.90;99.80;;;;;;5105658;28;20223;-83
2020/12/31 11:12:51;;;;;;;28.27;21.50;;;8.90;99.90;;;;;;5106739;28;20577;-84
2020/12/31 11:15:37;;;;;;;27.88;19.98;;;8.90;99.90;;;;;;5106720;28;20239;-83
2020/12/31 11:18:06;;;;;;;26.00;20.70;;;8.90;99.90;;;;;;5107227;28;20655;-83
2020/12/31 11:20:34;;;;;;;26.52;19.40;;;8.90;99.80;;;;;;5106856;28;20628;-83
2020/12/31 11:23:08;;;;;;;28.63;21.70;;;8.80;99.90;;;;;;5104915;28;20203;-83
2020/12/31 11:25:41;;;;;;;27.27;20.63;;;8.90;99.90;;;;;;5104944;28;20171;-83
2020/12/31 11:28:12;;;;;;;26.92;19.45;;;8.80;99.80;;;;;;5105223;28;20663;-83
2020/12/31 11:30:43;;;;;;;28.00;21.30;;;8.80;99.90;;;;;;5106561;28;20159;-83
2020/12/31 11:34:00;;;;;;;27.63;21.80;;;8.80;99.90;;;;;;5105496;28;20227;-83
2020/12/31 11:36:26;;;;;;;32.05;20.98;;;8.70;99.90;;;;;;5101796;28;20249;-83
2020/12/31 11:38:52;;;;;;;30.40;22.60;;;8.70;99.90;;;;;;5100039;28;20268;-84
2020/12/31 11:41:24;;;;;;;25.15;20.05;;;8.70;99.70;;;;;;5109416;28;20890;-83
2020/12/31 11:43:52;;;;;;;28.77;21.70;;;8.70;99.90;;;;;;5110848;28;20698;-83
2020/12/31 11:46:18;;;;;;;29.00;21.42;;;8.70;99.90;;;;;;5111019;28;20175;-83
2020/12/31 11:48:46;;;;;;;31.40;21.30;;;8.70;99.90;;;;;;5110654;28;20670;-83
2020/12/31 11:51:12;;;;;;;41.05;28.95;;;8.70;99.90;;;;;;5109663;28;20270;-83
2020/12/31 11:53:42;;;;;;;38.78;24.85;;;8.70;99.90;;;;;;5109361;28;20227;-83
2020/12/31 11:56:08;;;;;;;34.58;21.25;;;8.70;99.90;;;;;;5110950;28;20176;-83
2020/12/31 11:58:39;;;;;;;35.07;25.97;;;8.70;99.90;;;;;;5110185;28;20516;-83
2020/12/31 12:01:05;;;;;;;29.63;23.88;;;8.80;99.90;;;;;;5109535;28;20232;-83
2020/12/31 12:03:34;;;;;;;31.60;23.43;;;8.80;99.90;;;;;;5108227;28;20219;-83
2020/12/31 12:05:59;;;;;;;26.85;21.25;;;8.70;99.90;;;;;;5107124;28;20725;-83
2020/12/31 12:08:28;;;;;;;26.47;22.30;;;8.70;99.70;;;;;;5108329;28;20171;-84
2020/12/31 12:10:57;;;;;;;19.70;17.60;;;8.70;99.90;;;;;;5107761;28;20176;-83
2020/12/31 12:13:29;;;;;;;22.48;17.17;;;8.60;99.70;;;;;;5107053;28;20278;-83
2020/12/31 12:15:58;;;;;;;27.70;21.88;;;8.60;99.70;;;;;;5108386;28;20187;-83
2020/12/31 12:18:24;;;;;;;24.17;20.30;;;8.50;99.90;;;;;;5107953;28;20183;-83
2020/12/31 12:20:50;;;;;;;23.13;17.55;;;8.50;99.90;;;;;;5108048;28;20183;-83
2020/12/31 12:23:16;;;;;;;20.58;17.98;;;8.50;99.90;;;;;;5107956;28;20215;-83
2020/12/31 12:25:46;;;;;;;18.63;14.93;;;8.60;99.80;;;;;;5109299;28;20186;-83
2020/12/31 12:28:11;;;;;;;18.70;14.65;;;8.50;99.90;;;;;;5108252;28;20759;-83
2020/12/31 12:30:43;;;;;;;21.47;16.37;;;8.50;99.90;;;;;;5107517;28;20171;-83
2020/12/31 12:33:17;;;;;;;33.40;24.83;;;8.50;99.90;;;;;;5108669;28;20157;-84
2020/12/31 12:35:45;;;;;;;26.02;20.58;;;8.50;99.90;;;;;;5109812;28;20190;-83
2020/12/31 12:38:17;;;;;;;20.92;15.57;;;8.50;99.90;;;;;;5109393;28;20188;-83
2020/12/31 12:40:43;;;;;;;24.60;19.38;;;8.50;99.90;;;;;;5108530;28;20278;-83
2020/12/31 12:43:17;;;;;;;21.52;15.93;;;8.50;99.90;;;;;;5106737;28;20214;-83
2020/12/31 12:45:43;;;;;;;20.90;15.60;;;8.50;99.90;;;;;;5108821;28;20211;-83
2020/12/31 12:48:11;;;;;;;26.97;20.40;;;8.50;99.90;;;;;;5109268;28;20216;-83
2020/12/31 12:50:46;;;;;;;20.52;15.60;;;8.50;99.90;;;;;;5109127;28;20168;-83
2020/12/31 12:53:11;;;;;;;21.83;17.52;;;8.50;99.90;;;;;;5109912;28;20634;-83
2020/12/31 12:55:37;;;;;;;20.80;17.07;;;8.50;99.90;;;;;;5110002;28;20285;-83
2020/12/31 12:58:02;;;;;;;23.50;17.40;;;8.60;99.90;;;;;;5108941;28;20219;-83